createdAt,value
2019-01-15T00:00:45.678Z,66.40
2019-01-15T00:05:49.710Z,66.50
2019-01-15T00:10:53.714Z,66.40
2019-01-15T00:15:57.748Z,66.30
2019-01-15T00:21:01.814Z,66.20
2019-01-15T00:26:05.853Z,66.80
2019-01-15T00:31:10.949Z,66.60
2019-01-15T00:36:14.980Z,66.80
2019-01-15T00:41:19.161Z,66.80
2019-01-15T00:46:23.182Z,66.80
2019-01-15T00:51:28.146Z,66.60
2019-01-15T00:56:32.851Z,66.50
2019-01-15T01:01:37.852Z,66.30
2019-01-15T01:06:41.926Z,66.20
2019-01-15T01:11:46.070Z,67.00
2019-01-15T01:16:50.955Z,66.20
2019-01-15T01:21:55.006Z,66.10
2019-01-15T01:26:59.048Z,66.30
2019-01-15T01:32:03.334Z,66.20
2019-01-15T01:37:07.603Z,66.00
2019-01-15T01:42:12.111Z,66.00
2019-01-15T01:47:16.324Z,66.00
2019-01-15T01:52:20.430Z,66.10
2019-01-15T01:57:24.709Z,65.90
2019-01-15T02:02:28.746Z,65.80
2019-01-15T02:07:32.877Z,65.90
2019-01-15T02:12:37.208Z,65.90
2019-01-15T02:17:41.899Z,65.80
2019-01-15T02:22:46.584Z,65.80
2019-01-15T02:27:54.131Z,65.30
2019-01-15T02:32:58.358Z,65.40
2019-01-15T02:38:02.963Z,65.40
2019-01-15T02:43:07.157Z,65.00
2019-01-15T02:48:11.111Z,65.40
2019-01-15T02:53:15.051Z,65.00
2019-01-15T02:58:19.111Z,65.50
2019-01-15T03:03:23.939Z,65.20
2019-01-15T03:08:27.791Z,65.40
2019-01-15T03:13:31.980Z,64.80
2019-01-15T03:18:35.851Z,64.90
2019-01-15T03:23:39.873Z,64.90
2019-01-15T03:28:44.871Z,64.80
2019-01-15T03:33:48.941Z,65.10
2019-01-15T03:38:52.805Z,64.60
2019-01-15T03:43:56.871Z,64.90
2019-01-15T03:49:01.568Z,64.80
2019-01-15T03:54:05.557Z,64.60
2019-01-15T03:59:09.559Z,65.00
2019-01-15T04:04:14.201Z,64.40
2019-01-15T04:09:18.727Z,65.00
2019-01-15T04:14:22.677Z,65.20
2019-01-15T04:19:26.693Z,64.80
2019-01-15T04:24:30.843Z,64.90
2019-01-15T04:29:35.008Z,64.90
2019-01-15T04:34:39.012Z,64.60
2019-01-15T04:39:42.900Z,64.50
2019-01-15T04:44:46.779Z,65.00
2019-01-15T04:49:50.742Z,65.00
2019-01-15T04:54:55.211Z,65.10
2019-01-15T05:00:00.006Z,64.90
2019-01-15T05:05:05.052Z,64.90
2019-01-15T05:10:10.846Z,64.70
2019-01-15T05:15:15.279Z,65.40
2019-01-15T05:20:19.442Z,64.60
2019-01-15T05:25:23.971Z,65.00
2019-01-15T05:30:29.763Z,65.20
2019-01-15T05:35:33.739Z,64.80
2019-01-15T05:40:38.087Z,64.80
2019-01-15T05:45:44.944Z,64.80
2019-01-15T05:50:55.886Z,64.60
2019-01-15T05:55:59.810Z,65.00
2019-01-15T06:01:04.137Z,65.20
2019-01-15T06:06:08.432Z,65.40
2019-01-15T06:11:12.404Z,65.40
2019-01-15T06:16:16.815Z,65.20
2019-01-15T06:21:21.268Z,65.30
2019-01-15T06:26:25.285Z,65.80
2019-01-15T06:31:29.329Z,65.10
2019-01-15T06:36:33.420Z,65.60
2019-01-15T06:41:37.457Z,65.40
2019-01-15T06:46:42.674Z,65.30
2019-01-15T06:51:46.754Z,65.50
2019-01-15T06:56:50.836Z,66.10
2019-01-15T07:01:54.919Z,65.80
2019-01-15T07:06:58.895Z,65.70
2019-01-15T07:12:03.000Z,65.70
2019-01-15T07:17:06.943Z,66.10
2019-01-15T07:22:11.691Z,66.00
2019-01-15T07:27:16.508Z,65.90
2019-01-15T07:32:20.747Z,65.90
2019-01-15T07:37:24.703Z,66.20
2019-01-15T07:42:28.576Z,66.10
2019-01-15T07:47:32.607Z,66.20
2019-01-15T07:52:36.819Z,66.30
2019-01-15T07:57:40.840Z,66.20
2019-01-15T08:02:44.900Z,66.60
2019-01-15T08:07:48.856Z,66.60
2019-01-15T08:12:52.916Z,66.40
2019-01-15T08:17:56.855Z,66.50
2019-01-15T08:23:00.923Z,67.00
2019-01-15T08:28:05.252Z,67.00
2019-01-15T08:33:09.131Z,67.20
2019-01-15T08:38:13.041Z,67.20
2019-01-15T08:43:16.923Z,67.50
2019-01-15T08:48:23.840Z,67.30
2019-01-15T08:53:27.903Z,67.60
2019-01-15T08:58:31.793Z,67.60
2019-01-15T09:03:35.684Z,67.80
2019-01-15T09:08:39.739Z,67.70
2019-01-15T09:13:43.627Z,67.50
2019-01-15T09:18:47.567Z,67.70
2019-01-15T09:23:51.579Z,67.50
2019-01-15T09:28:55.518Z,68.00
2019-01-15T09:33:59.483Z,68.10
2019-01-15T09:39:05.705Z,68.10
2019-01-15T09:44:09.773Z,68.00
2019-01-15T09:49:13.673Z,68.00
2019-01-15T09:54:18.830Z,68.10
2019-01-15T09:59:26.148Z,67.80
2019-01-15T10:04:32.971Z,68.20
2019-01-15T10:09:43.131Z,68.10
2019-01-15T10:14:49.931Z,68.80
2019-01-15T10:19:53.792Z,68.40
2019-01-15T10:24:59.449Z,68.20
2019-01-15T10:30:07.408Z,68.50
2019-01-15T10:35:33.307Z,68.20
2019-01-15T10:40:37.181Z,68.40
2019-01-15T10:45:41.111Z,68.10
2019-01-15T10:50:44.972Z,68.80
2019-01-15T10:55:48.987Z,68.60
2019-01-15T11:00:52.929Z,68.50
2019-01-15T11:05:56.781Z,68.80
2019-01-15T11:11:00.635Z,68.60
2019-01-15T11:16:04.645Z,68.80
2019-01-15T11:21:09.339Z,68.70
2019-01-15T11:26:13.360Z,68.70
2019-01-15T11:31:17.293Z,68.70
2019-01-15T11:36:21.173Z,68.50
2019-01-15T11:41:25.105Z,68.70
2019-01-15T11:46:28.939Z,68.70
2019-01-15T11:51:32.872Z,68.80
2019-01-15T11:56:36.772Z,68.80
2019-01-15T12:01:44.312Z,68.50
2019-01-15T12:07:13.445Z,68.60
2019-01-15T12:12:35.411Z,68.60
2019-01-15T12:17:51.867Z,68.70
2019-01-15T12:23:13.563Z,68.90
2019-01-15T12:28:47.354Z,68.90
2019-01-15T12:34:09.167Z,68.50
2019-01-15T12:39:34.145Z,68.70
2019-01-15T12:44:56.055Z,68.70
2019-01-15T12:50:34.180Z,68.80
2019-01-15T12:55:53.292Z,69.00
2019-01-15T13:01:19.035Z,68.90
2019-01-15T13:06:51.451Z,69.30
2019-01-15T13:12:20.243Z,69.00
2019-01-15T13:17:49.359Z,69.20
2019-01-15T13:23:21.187Z,69.20
2019-01-15T13:28:47.600Z,69.20
2019-01-15T13:34:00.607Z,69.00
2019-01-15T13:39:29.823Z,69.30
2019-01-15T13:44:48.591Z,69.40
2019-01-15T13:50:30.187Z,69.70
2019-01-15T13:55:54.303Z,69.70
2019-01-15T14:01:06.113Z,70.00
2019-01-15T14:06:28.047Z,70.30
2019-01-15T14:11:57.135Z,70.20
2019-01-15T14:17:21.764Z,70.10
2019-01-15T14:22:48.132Z,69.80
2019-01-15T14:28:02.899Z,70.10
2019-01-15T14:33:22.908Z,70.00
2019-01-15T14:38:36.661Z,70.50
2019-01-15T14:44:15.308Z,70.20
2019-01-15T14:49:38.483Z,70.20
2019-01-15T14:55:02.564Z,70.20
2019-01-15T15:00:47.641Z,70.10
2019-01-15T15:05:58.428Z,70.10
2019-01-15T15:11:20.602Z,69.90
2019-01-15T15:16:43.548Z,69.80
2019-01-15T15:22:02.495Z,70.20
2019-01-15T15:27:25.420Z,70.20
2019-01-15T15:32:50.420Z,70.00
2019-01-15T15:38:16.574Z,69.90
2019-01-15T15:43:47.832Z,69.90
2019-01-15T15:49:10.922Z,70.10
2019-01-15T15:54:42.927Z,70.00
2019-01-15T16:00:06.832Z,70.20
2019-01-15T16:05:25.219Z,69.90
2019-01-15T16:11:03.267Z,70.00
2019-01-15T16:16:29.183Z,70.00
2019-01-15T16:21:42.600Z,69.90
2019-01-15T16:27:11.479Z,79.80
2019-01-15T16:32:33.257Z,69.80
2019-01-15T16:37:53.905Z,69.30
2019-01-15T16:43:07.295Z,69.50
2019-01-15T16:48:37.107Z,69.60
2019-01-15T16:54:01.936Z,69.70
2019-01-15T16:59:21.927Z,69.70
2019-01-15T17:04:50.741Z,69.60
2019-01-15T17:10:12.697Z,70.00
2019-01-15T17:15:34.657Z,69.90
2019-01-15T17:20:56.499Z,69.90
2019-01-15T17:26:14.632Z,69.90
2019-01-15T17:31:38.204Z,69.70
2019-01-15T17:36:49.009Z,69.80
2019-01-15T17:42:21.187Z,69.80
2019-01-15T17:47:48.047Z,69.80
2019-01-15T17:53:26.149Z,69.80
2019-01-15T17:58:49.096Z,69.60
2019-01-15T18:04:24.397Z,69.80
2019-01-15T18:09:59.492Z,69.60
2019-01-15T18:15:31.447Z,69.80
2019-01-15T18:21:00.676Z,69.70
2019-01-15T18:26:26.815Z,69.70
2019-01-15T18:32:02.064Z,69.70
2019-01-15T18:37:23.391Z,69.50
2019-01-15T18:42:52.866Z,69.60
2019-01-15T18:48:13.076Z,69.70
2019-01-15T18:53:34.884Z,69.60
2019-01-15T18:59:10.020Z,69.70
2019-01-15T19:04:39.191Z,69.80
2019-01-15T19:10:01.044Z,69.80
2019-01-15T19:15:24.634Z,69.80
2019-01-15T19:20:36.871Z,69.50
2019-01-15T19:25:58.794Z,69.90
2019-01-15T19:31:20.676Z,69.90
2019-01-15T19:36:38.704Z,69.60
2019-01-15T19:42:10.080Z,69.70
2019-01-15T19:47:38.585Z,69.80
2019-01-15T19:53:10.420Z,69.90
2019-01-15T19:58:40.297Z,69.80
2019-01-15T20:03:54.872Z,69.90
2019-01-15T20:09:13.085Z,69.80
2019-01-15T20:14:38.891Z,69.70
2019-01-15T20:19:54.768Z,69.50
2019-01-15T20:25:22.144Z,69.60
2019-01-15T20:30:40.936Z,69.60
2019-01-15T20:36:01.117Z,69.60
2019-01-15T20:41:23.081Z,69.50
2019-01-15T20:46:52.996Z,69.50
2019-01-15T20:52:12.655Z,69.50
2019-01-15T20:57:37.212Z,69.60
2019-01-15T21:02:59.187Z,69.30
2019-01-15T21:08:20.312Z,69.50
2019-01-15T21:13:42.332Z,69.60
2019-01-15T21:19:10.380Z,69.50
2019-01-15T21:24:32.458Z,69.60
2019-01-15T21:30:13.835Z,69.50
2019-01-15T21:35:36.263Z,69.80
2019-01-15T21:41:05.651Z,69.50
2019-01-15T21:46:28.810Z,69.70
2019-01-15T21:52:04.087Z,69.50
2019-01-15T21:57:26.600Z,69.50
2019-01-15T22:02:56.095Z,69.20
2019-01-15T22:08:22.268Z,70.10
2019-01-15T22:14:03.405Z,69.10
2019-01-15T22:19:30.032Z,69.30
2019-01-15T22:24:51.680Z,69.30
2019-01-15T22:30:17.777Z,69.40
2019-01-15T22:35:39.457Z,69.20
2019-01-15T22:41:01.171Z,69.20
2019-01-15T22:46:36.447Z,69.40
2019-01-15T22:52:14.804Z,69.10
2019-01-15T22:57:30.147Z,69.20
2019-01-15T23:02:59.395Z,69.30
2019-01-15T23:08:20.028Z,69.10
2019-01-15T23:13:36.909Z,69.00
2019-01-15T23:18:58.764Z,69.10
2019-01-15T23:24:37.093Z,69.10
2019-01-15T23:30:15.247Z,69.00
2019-01-15T23:35:32.427Z,69.00
2019-01-15T23:41:13.741Z,69.10
2019-01-15T23:46:40.234Z,69.00
2019-01-15T23:52:03.832Z,69.10
2019-01-15T23:57:25.971Z,69.80
